Time;durP1;ratioP1;P1;durP2;ratioP2;P2;SDS_P1;SDS_P2;PMS_P1;PMS_P2;Temp;Humidity;BMP_temperature;BMP_pressure;BME280_temperature;BME280_humidity;BME280_pressure;Samples;Min_cycle;Max_cycle;Signal;HPM_P1;HPM_P2
2022/01/19 00:00:12;;;;;;;3.28;2.03;;;;;;;19.03;46.12;102392.84;5042100;28;20025;-70
2022/01/19 00:02:37;;;;;;;4.90;2.15;;;;;;;19.03;46.08;102403.41;5040604;28;20047;-70
2022/01/19 00:05:04;;;;;;;3.67;1.80;;;;;;;19.04;46.18;102402.41;5038303;28;20365;-70
2022/01/19 00:07:30;;;;;;;3.67;2.00;;;;;;;19.03;46.22;102395.47;5039494;28;20029;-70
2022/01/19 00:09:55;;;;;;;2.85;1.95;;;;;;;19.02;46.25;102408.84;5039705;28;20040;-70
2022/01/19 00:12:21;;;;;;;2.80;2.30;;;;;;;19.01;46.18;102415.94;5040371;28;20538;-70
2022/01/19 00:14:46;;;;;;;4.32;2.92;;;;;;;19.01;46.11;102423.03;5040229;28;20025;-69
2022/01/19 00:17:11;;;;;;;4.20;1.77;;;;;;;18.98;46.03;102410.13;5037029;28;20037;-70
2022/01/19 00:19:37;;;;;;;3.78;2.45;;;;;;;18.96;45.89;102410.28;5043928;28;20385;-70
2022/01/19 00:22:02;;;;;;;3.97;1.63;;;;;;;18.96;45.97;102410.28;5046398;28;20032;-70
2022/01/19 00:24:28;;;;;;;4.38;2.28;;;;;;;18.95;45.85;102405.13;5047581;28;20028;-68
2022/01/19 00:26:53;;;;;;;3.30;1.90;;;;;;;18.94;45.90;102404.31;5048305;28;20052;-70
2022/01/19 00:29:18;;;;;;;3.60;2.50;;;;;;;18.93;45.76;102404.47;5039644;28;20028;-70
2022/01/19 00:31:44;;;;;;;3.10;2.10;;;;;;;18.92;45.60;102392.25;5047814;28;20029;-69
2022/01/19 00:34:09;;;;;;;3.70;2.28;;;;;;;18.91;45.70;102401.97;5041929;28;20122;-69
2022/01/19 00:36:35;;;;;;;3.28;2.00;;;;;;;18.89;45.74;102396.88;5046087;28;20397;-71
2022/01/19 00:39:00;;;;;;;4.28;2.45;;;;;;;18.87;45.79;102398.84;5047192;28;20037;-70
2022/01/19 00:41:26;;;;;;;3.67;2.35;;;;;;;18.86;45.79;102401.63;5045780;28;20477;-69
2022/01/19 00:43:51;;;;;;;3.33;2.47;;;;;;;18.87;45.68;102403.28;5044294;28;20025;-70
2022/01/19 00:46:16;;;;;;;2.33;1.75;;;;;;;18.86;45.93;102401.63;5047581;28;20040;-70
2022/01/19 00:48:42;;;;;;;3.70;2.35;;;;;;;18.86;45.81;102394.53;5047151;28;20037;-71
2022/01/19 00:51:08;;;;;;;4.03;2.22;;;;;;;18.86;45.82;102388.41;5039947;28;20034;-70
2022/01/19 00:53:33;;;;;;;3.90;1.48;;;;;;;18.86;45.69;102386.63;5045907;28;20082;-70
2022/01/19 00:55:59;;;;;;;2.58;1.73;;;;;;;18.84;45.77;102388.56;5044270;28;20104;-69
2022/01/19 00:58:24;;;;;;;5.57;2.30;;;;;;;18.84;45.81;102385.94;5042303;28;20181;-69
2022/01/19 01:00:50;;;;;;;2.35;2.15;;;;;;;18.83;45.97;102379.00;5046840;28;20041;-68
2022/01/19 01:03:16;;;;;;;4.65;2.25;;;;;;;18.84;45.78;102378.00;5044974;28;20045;-70
2022/01/19 01:05:42;;;;;;;3.33;1.80;;;;;;;18.84;45.63;102380.66;5043027;28;20033;-70
2022/01/19 01:08:08;;;;;;;4.32;2.10;;;;;;;18.85;45.79;102381.47;5043504;28;20262;-69
2022/01/19 01:10:41;;;;;;;6.15;2.33;;;;;;;18.84;45.68;102378.00;5045446;28;20052;-68
2022/01/19 01:13:21;;;;;;;2.85;1.85;;;;;;;18.83;45.52;102365.78;5047368;28;20704;-69
2022/01/19 01:18:24;;;;;;;4.10;2.17;;;;;;;18.94;48.28;102372.63;5044292;28;20467;-70
2022/01/19 01:20:53;;;;;;;4.40;1.70;;;;;;;18.95;47.95;102371.63;5045794;28;20028;-70
2022/01/19 01:23:21;;;;;;;3.03;1.50;;;;;;;18.96;47.78;102378.56;5047153;28;20025;-70
2022/01/19 01:25:47;;;;;;;2.30;1.50;;;;;;;18.94;47.65;102369.16;5042646;28;20029;-71
2022/01/19 01:28:13;;;;;;;3.30;1.73;;;;;;;18.92;47.45;102363.19;5045054;28;20523;-68
2022/01/19 01:30:40;;;;;;;4.30;1.50;;;;;;;18.88;47.46;102371.44;5045975;28;20120;-70
2022/01/19 01:33:06;;;;;;;2.65;1.40;;;;;;;18.87;47.31;102372.44;5044638;28;20064;-69
2022/01/19 01:35:32;;;;;;;4.43;1.42;;;;;;;18.86;47.18;102381.34;5044614;28;20035;-70
2022/01/19 01:37:58;;;;;;;3.08;1.65;;;;;;;18.85;47.16;102384.94;5039390;28;20029;-71
2022/01/19 01:40:25;;;;;;;2.85;1.40;;;;;;;18.84;47.02;102385.09;5039478;28;20065;-70
2022/01/19 01:42:56;;;;;;;4.30;1.73;;;;;;;18.81;47.09;102373.03;5042717;28;20118;-67
2022/01/19 01:45:27;;;;;;;3.00;1.38;;;;;;;18.81;46.96;102369.56;5032972;28;20053;-68
2022/01/19 01:48:02;;;;;;;2.67;1.42;;;;;;;18.79;46.82;102361.78;5048253;28;20215;-69
2022/01/19 01:53:27;;;;;;;1.80;1.10;;;;;;;18.76;46.60;102351.53;5047749;28;20441;-70
2022/01/19 01:55:59;;;;;;;4.13;1.75;;;;;;;18.74;46.68;102342.09;5043645;28;20025;-70
2022/01/19 01:58:26;;;;;;;3.92;1.42;;;;;;;18.74;46.70;102340.28;5040444;28;20029;-69
2022/01/19 02:00:53;;;;;;;2.42;1.38;;;;;;;18.73;46.72;102341.28;5045866;28;20139;-69
2022/01/19 02:03:19;;;;;;;2.20;1.08;;;;;;;18.73;46.60;102336.00;5039695;28;20042;-68
2022/01/19 02:08:46;;;;;;;1.80;1.30;;;;;;;18.69;46.50;102328.53;4997577;28;20046;-70
2022/01/19 02:16:34;;;;;;;1.40;1.27;;;;;;;18.65;46.29;102325.38;5002604;28;20729;-69
2022/01/19 02:21:59;;;;;;;2.10;1.48;;;;;;;18.67;46.41;102307.56;4997470;28;20064;-69
2022/01/19 02:24:32;;;;;;;2.75;1.20;;;;;;;18.69;46.18;102305.59;4997443;28;20494;-70
2022/01/19 02:40:23;;;;;;;1.80;1.20;;;;;;;18.67;46.05;102278.50;4997364;28;20119;-69
2022/01/19 02:43:09;;;;;;;2.05;1.17;;;;;;;18.67;45.86;102286.44;4999827;28;20065;-70
2022/01/19 02:51:05;;;;;;;2.42;0.75;;;;;;;18.58;46.07;102289.97;5039149;28;20080;-70
2022/01/19 02:53:39;;;;;;;1.70;0.88;;;;;;;18.58;45.93;102284.69;5036444;28;20403;-68
2022/01/19 02:56:41;;;;;;;1.75;1.00;;;;;;;18.61;45.90;102281.75;5038287;28;20067;-68
2022/01/19 02:59:10;;;;;;;3.25;1.35;;;;;;;18.61;45.95;102283.56;5034551;28;20099;-69
2022/01/19 03:09:41;;;;;;;1.83;1.20;;;;;;;18.62;45.73;102272.88;5041466;28;20072;-70
2022/01/19 03:12:07;;;;;;;1.83;1.20;;;;;;;18.63;45.85;102271.88;5043341;28;20435;-70
2022/01/19 03:14:33;;;;;;;2.40;1.75;;;;;;;18.64;45.95;102273.53;5041675;28;20202;-70
2022/01/19 03:16:58;;;;;;;2.60;1.48;;;;;;;18.63;45.90;102261.31;5044544;28;20029;-69
2022/01/19 03:19:26;;;;;;;2.60;1.60;;;;;;;18.64;45.83;102268.25;5045471;28;20025;-69
2022/01/19 03:21:52;;;;;;;2.17;1.48;;;;;;;18.62;45.76;102262.31;5044158;28;20479;-68
2022/01/19 03:24:17;;;;;;;1.70;1.23;;;;;;;18.61;45.79;102258.00;5045654;28;20028;-69
2022/01/19 03:26:42;;;;;;;2.63;1.23;;;;;;;18.58;45.79;102266.19;5046515;28;20461;-71
2022/01/19 03:29:08;;;;;;;1.85;1.05;;;;;;;18.55;45.77;102269.97;5041274;28;20037;-70
2022/01/19 03:31:34;;;;;;;2.17;1.27;;;;;;;18.54;45.47;102262.22;5043423;28;20167;-69
2022/01/19 03:33:59;;;;;;;2.33;1.40;;;;;;;18.53;45.66;102255.28;5045864;28;20072;-70
2022/01/19 03:36:25;;;;;;;2.47;1.67;;;;;;;18.54;45.56;102262.22;5043364;28;20021;-71
2022/01/19 03:38:50;;;;;;;2.88;1.58;;;;;;;18.55;45.71;102263.88;5045177;28;20024;-69
2022/01/19 03:41:16;;;;;;;2.10;1.80;;;;;;;18.54;45.58;102262.22;5042829;28;20167;-69
2022/01/19 03:43:41;;;;;;;2.35;1.67;;;;;;;18.54;45.46;102251.66;5043701;28;20388;-69
2022/01/19 03:46:13;;;;;;;1.85;1.52;;;;;;;18.54;45.49;102256.94;5044863;28;20528;-68
2022/01/19 03:48:57;;;;;;;2.42;1.75;;;;;;;18.53;45.41;102250.00;5044272;28;20029;-68
2022/01/19 03:51:24;;;;;;;2.35;1.85;;;;;;;18.51;45.41;102247.50;5042814;28;20106;-70
2022/01/19 03:53:49;;;;;;;1.95;1.45;;;;;;;18.52;45.40;102248.34;5044791;28;20426;-70
2022/01/19 03:56:15;;;;;;;2.53;1.67;;;;;;;18.52;45.29;102261.53;5045973;28;20744;-71
2022/01/19 03:58:41;;;;;;;2.40;1.10;;;;;;;18.52;45.28;102253.63;5044062;28;20566;-70
2022/01/19 04:01:07;;;;;;;1.20;0.90;;;;;;;18.50;45.23;102247.66;5047655;28;20053;-70
2022/01/19 04:03:59;;;;;;;1.90;1.30;;;;;;;18.47;45.14;102240.88;5040823;28;20120;-69
2022/01/19 04:06:26;;;;;;;1.77;1.20;;;;;;;18.45;45.02;102234.09;5044561;28;20067;-68
2022/01/19 04:08:51;;;;;;;1.95;1.38;;;;;;;18.44;44.94;102245.63;5044314;28;20091;-68
2022/01/19 04:11:19;;;;;;;2.35;1.35;;;;;;;18.42;44.96;102239.69;5047366;28;20021;-70
2022/01/19 04:16:28;;;;;;;1.90;1.50;;;;;;;18.37;44.88;102234.88;5048803;28;20049;-68
2022/01/19 04:19:06;;;;;;;2.15;1.23;;;;;;;18.38;44.84;102227.78;5047850;28;20110;-69
2022/01/19 04:21:32;;;;;;;2.75;1.52;;;;;;;18.36;44.66;102233.22;5045965;28;20679;-70
2022/01/19 04:23:57;;;;;;;2.42;1.70;;;;;;;18.34;44.48;102226.44;5047800;28;20017;-69
2022/01/19 04:26:23;;;;;;;1.73;1.27;;;;;;;18.33;44.60;102230.06;5048038;28;20029;-69
2022/01/19 04:28:48;;;;;;;1.83;1.25;;;;;;;18.33;44.63;102222.16;5048454;28;20094;-68
2022/01/19 04:31:14;;;;;;;1.95;1.48;;;;;;;18.31;44.73;102219.66;5048150;28;20069;-69
2022/01/19 04:33:43;;;;;;;1.52;1.17;;;;;;;18.30;44.64;102217.16;5048257;28;20056;-69
2022/01/19 04:36:27;;;;;;;1.77;1.27;;;;;;;18.29;44.71;102221.63;5048856;28;20102;-69
2022/01/19 05:04:35;;;;;;;3.58;1.67;;;;;;;18.25;44.56;102185.97;5005901;28;20065;-68
2022/01/19 05:06:30;;;;;;;2.53;1.50;;;;;;;18.27;44.55;102191.09;5000926;28;20045;-69
2022/01/19 05:09:08;;;;;;;2.47;1.80;;;;;;;18.27;44.60;102185.81;5003857;28;20061;-70
2022/01/19 05:14:18;;;;;;;1.85;1.33;;;;;;;18.28;44.46;102183.03;5006153;28;20080;-68
2022/01/19 05:16:43;;;;;;;2.22;1.58;;;;;;;18.29;44.46;102184.69;5006270;28;20053;-69
2022/01/19 05:19:09;;;;;;;1.80;1.30;;;;;;;18.30;44.26;102186.34;5005930;28;20029;-69
2022/01/19 05:21:34;;;;;;;2.65;1.77;;;;;;;18.32;44.21;102184.38;5005247;28;20045;-69
2022/01/19 05:24:04;;;;;;;2.92;1.85;;;;;;;18.36;44.05;102184.91;5005158;28;20061;-68
2022/01/19 05:26:31;;;;;;;4.38;1.63;;;;;;;18.39;44.11;102179.31;5016782;28;20128;-68
2022/01/19 05:28:57;;;;;;;2.67;1.58;;;;;;;18.42;44.05;102179.84;5046607;28;20032;-70
2022/01/19 05:31:23;;;;;;;2.38;1.35;;;;;;;18.47;43.99;102181.97;5048147;28;20477;-68
2022/01/19 05:33:49;;;;;;;3.05;1.63;;;;;;;18.50;43.99;102186.94;5045204;28;20044;-70
2022/01/19 05:36:14;;;;;;;2.40;1.50;;;;;;;18.53;44.00;102187.47;5047721;28;20029;-68
2022/01/19 05:38:40;;;;;;;2.92;1.70;;;;;;;18.56;43.90;102181.88;5044007;28;20035;-69
2022/01/19 05:41:05;;;;;;;1.85;1.13;;;;;;;18.59;43.75;102186.03;5047800;28;20029;-70
2022/01/19 05:43:30;;;;;;;2.03;1.33;;;;;;;18.62;43.70;102183.09;5043877;28;20029;-68
2022/01/19 05:45:56;;;;;;;3.00;1.70;;;;;;;18.64;43.67;102189.06;5048017;28;20038;-68
2022/01/19 05:48:21;;;;;;;2.00;1.40;;;;;;;18.67;43.61;102177.38;5046053;28;20021;-68
2022/01/19 05:50:47;;;;;;;3.03;1.60;;;;;;;18.70;43.56;102177.06;5047888;28;20078;-68
2022/01/19 05:53:13;;;;;;;2.80;1.45;;;;;;;18.73;43.53;102176.75;5046961;28;20396;-68
2022/01/19 05:55:38;;;;;;;2.13;1.52;;;;;;;18.76;43.37;102177.25;5046657;28;20082;-69
2022/01/19 05:58:04;;;;;;;1.73;1.40;;;;;;;18.80;43.33;102175.97;5042663;28;20029;-69
2022/01/19 06:00:30;;;;;;;2.53;1.40;;;;;;;18.82;43.12;102176.63;5042608;28;20036;-69
2022/01/19 06:02:55;;;;;;;3.33;1.52;;;;;;;18.86;43.36;102177.97;5044764;28;20645;-69
2022/01/19 06:05:21;;;;;;;3.50;1.50;;;;;;;18.89;43.08;102176.84;5046699;28;20117;-69
2022/01/19 06:07:48;;;;;;;2.13;1.30;;;;;;;18.90;43.12;102173.22;5043996;28;20344;-69
2022/01/19 06:10:42;;;;;;;2.55;1.48;;;;;;;18.95;42.96;102170.06;5046589;28;20082;-69
2022/01/19 06:13:00;;;;;;;2.05;1.23;;;;;;;18.96;43.06;102164.63;5036742;28;20469;-68
2022/01/19 06:15:26;;;;;;;2.55;1.73;;;;;;;18.99;42.84;102160.84;5047767;28;20519;-69
2022/01/19 06:17:51;;;;;;;2.38;1.55;;;;;;;19.03;42.81;102162.19;5044860;28;20032;-69
2022/01/19 06:20:17;;;;;;;2.33;1.90;;;;;;;19.04;42.57;102158.56;5046708;28;20427;-70
2022/01/19 06:22:45;;;;;;;2.60;1.88;;;;;;;19.08;42.62;102167.81;5042253;28;20036;-70
2022/01/19 06:25:10;;;;;;;3.92;1.50;;;;;;;19.09;42.60;102162.38;5046220;28;20354;-69
2022/01/19 06:27:36;;;;;;;3.85;1.77;;;;;;;19.12;42.44;102161.25;5045701;28;20475;-68
2022/01/19 06:30:01;;;;;;;2.70;1.58;;;;;;;19.13;42.44;102162.91;5043757;28;20028;-69
2022/01/19 06:32:26;;;;;;;2.85;1.48;;;;;;;19.13;42.49;102161.09;5044811;28;20029;-70
2022/01/19 06:34:52;;;;;;;3.17;1.58;;;;;;;19.14;42.48;102153.97;5045566;28;20090;-69
2022/01/19 06:37:17;;;;;;;2.42;1.77;;;;;;;19.15;42.59;102151.19;5041468;28;20032;-68
2022/01/19 06:39:43;;;;;;;2.42;1.65;;;;;;;19.17;42.33;102141.28;5046117;28;20819;-68
2022/01/19 06:42:08;;;;;;;2.03;1.42;;;;;;;19.18;42.32;102144.75;5042862;28;20385;-69
2022/01/19 06:44:34;;;;;;;1.98;1.48;;;;;;;19.18;42.26;102137.66;5046106;28;20037;-70
2022/01/19 06:47:00;;;;;;;3.78;1.95;;;;;;;19.21;42.37;102133.88;5045569;28;20557;-70
2022/01/19 06:49:25;;;;;;;2.50;1.35;;;;;;;19.22;42.45;102135.53;5044392;28;20037;-68
2022/01/19 06:51:50;;;;;;;1.75;1.17;;;;;;;19.22;42.13;102141.63;5041964;28;20238;-71
2022/01/19 06:54:16;;;;;;;2.55;1.60;;;;;;;19.24;42.06;102149.41;5045459;28;20025;-69
2022/01/19 06:56:41;;;;;;;2.65;1.55;;;;;;;19.25;42.19;102144.94;5044015;28;20362;-70
2022/01/19 06:59:07;;;;;;;4.63;1.17;;;;;;;19.27;42.04;102143.78;5042555;28;20203;-68
2022/01/19 07:01:33;;;;;;;3.00;1.65;;;;;;;19.30;42.07;102134.72;5043473;28;20036;-70
2022/01/19 07:04:01;;;;;;;2.53;1.25;;;;;;;19.31;41.92;102137.19;5039615;28;20091;-67
2022/01/19 07:06:26;;;;;;;2.08;1.55;;;;;;;19.30;42.09;102140.84;5037649;28;20476;-68
2022/01/19 07:08:52;;;;;;;2.10;1.33;;;;;;;19.31;42.09;102131.91;5041957;28;20040;-69
2022/01/19 07:11:17;;;;;;;2.72;1.58;;;;;;;19.32;42.04;102132.75;5045511;28;20124;-68
2022/01/19 07:13:43;;;;;;;4.18;1.50;;;;;;;19.31;41.97;102126.63;5044512;28;20098;-69
2022/01/19 07:16:08;;;;;;;3.97;1.95;;;;;;;19.31;42.00;102137.19;5041795;28;20071;-69
2022/01/19 07:18:34;;;;;;;2.50;1.77;;;;;;;19.31;41.81;102142.50;5044935;28;20104;-69
2022/01/19 07:20:59;;;;;;;2.55;1.67;;;;;;;19.31;41.89;102142.50;5045268;28;20098;-68
2022/01/19 07:23:24;;;;;;;2.30;1.58;;;;;;;19.32;41.81;102138.84;5041098;28;20113;-68
2022/01/19 07:25:50;;;;;;;2.85;1.60;;;;;;;19.33;41.63;102139.69;5044786;28;20036;-69
2022/01/19 07:28:16;;;;;;;3.10;1.80;;;;;;;19.35;41.73;102137.72;5045101;28;20435;-69
2022/01/19 07:30:41;;;;;;;1.83;1.63;;;;;;;19.35;41.74;102127.97;5043161;28;21079;-69
2022/01/19 07:33:07;;;;;;;2.72;1.52;;;;;;;19.35;41.65;102132.44;5038324;28;20021;-68
2022/01/19 07:35:32;;;;;;;2.30;1.75;;;;;;;19.37;41.85;102131.28;5042973;28;20033;-70
2022/01/19 07:37:58;;;;;;;1.90;1.63;;;;;;;19.36;41.89;102131.44;5044118;28;20090;-69
2022/01/19 07:40:24;;;;;;;1.80;1.52;;;;;;;19.34;41.76;102128.97;5044486;28;20033;-69
2022/01/19 07:42:51;;;;;;;4.32;2.03;;;;;;;19.33;41.85;102137.88;5046180;28;20380;-69
2022/01/19 07:45:17;;;;;;;4.43;2.30;;;;;;;19.28;41.46;102134.88;5042063;28;20025;-70
2022/01/19 07:47:42;;;;;;;7.32;2.05;;;;;;;19.27;41.65;102127.94;5045431;28;20417;-68
2022/01/19 07:50:08;;;;;;;3.25;1.27;;;;;;;19.25;41.28;102135.19;5041546;28;20021;-69
2022/01/19 07:52:34;;;;;;;3.60;2.10;;;;;;;19.25;41.34;102134.38;5042364;28;20035;-69
2022/01/19 07:54:59;;;;;;;7.00;2.25;;;;;;;19.27;42.02;102135.03;5044315;28;20032;-68
2022/01/19 07:57:25;;;;;;;7.15;3.22;;;;;;;19.28;42.23;102129.59;5041161;28;20128;-69
2022/01/19 07:59:50;;;;;;;4.03;1.80;;;;;;;19.32;42.35;102130.94;5040136;28;20427;-70
2022/01/19 08:02:16;;;;;;;3.78;1.88;;;;;;;19.34;42.37;102131.59;5037745;28;20045;-69
2022/01/19 08:04:42;;;;;;;3.10;1.95;;;;;;;19.33;42.42;102127.31;5043671;28;20098;-68
2022/01/19 08:07:08;;;;;;;13.23;2.50;;;;;;;19.33;42.43;102135.22;5039945;28;20447;-68
2022/01/19 08:09:35;;;;;;;13.60;2.05;;;;;;;19.34;42.63;102134.25;5039670;28;20072;-69
2022/01/19 08:12:01;;;;;;;6.45;1.92;;;;;;;19.34;42.57;102128.97;5040002;28;20090;-69
2022/01/19 08:14:26;;;;;;;4.70;1.35;;;;;;;19.31;42.59;102131.91;5035546;28;20453;-69
2022/01/19 08:16:53;;;;;;;5.30;1.90;;;;;;;19.32;42.84;102130.09;5042268;28;20041;-70
2022/01/19 08:19:19;;;;;;;6.78;1.98;;;;;;;19.31;43.11;102123.16;5036457;28;20037;-69
2022/01/19 08:21:45;;;;;;;3.17;1.90;;;;;;;19.30;43.26;102124.97;5041758;28;20029;-69
2022/01/19 08:24:10;;;;;;;8.10;2.75;;;;;;;19.31;43.52;102126.63;5038343;28;20067;-68
2022/01/19 08:26:36;;;;;;;7.25;2.03;;;;;;;19.31;44.05;102131.09;5042807;28;20040;-70
2022/01/19 08:29:01;;;;;;;5.97;2.00;;;;;;;19.28;43.98;102129.59;5038646;28;20029;-68
2022/01/19 08:31:27;;;;;;;3.15;1.88;;;;;;;19.26;43.81;102126.28;5039180;28;20485;-69
2022/01/19 08:33:52;;;;;;;6.63;1.98;;;;;;;19.26;43.72;102131.56;5041938;28;20029;-69
2022/01/19 08:36:18;;;;;;;3.47;1.55;;;;;;;19.23;43.44;102131.88;5043635;28;20027;-69
2022/01/19 08:38:43;;;;;;;3.92;1.35;;;;;;;19.22;43.35;102125.78;5044052;28;20048;-69
2022/01/19 08:41:10;;;;;;;5.32;1.92;;;;;;;19.20;43.39;102127.75;5042760;28;20050;-70
2022/01/19 08:43:35;;;;;;;2.60;1.52;;;;;;;19.19;43.33;102135.84;5045777;28;20040;-69
2022/01/19 08:46:01;;;;;;;6.07;1.30;;;;;;;19.17;43.40;102132.53;5040667;28;20029;-69
2022/01/19 08:48:28;;;;;;;4.32;1.55;;;;;;;19.16;43.35;102125.59;5048428;28;20025;-68
2022/01/19 08:50:54;;;;;;;6.90;1.55;;;;;;;19.14;43.38;102132.84;5048830;28;20199;-69
2022/01/19 08:53:20;;;;;;;9.20;1.88;;;;;;;19.10;43.55;102131.50;5047338;28;21343;-69
2022/01/19 08:55:46;;;;;;;1.92;1.38;;;;;;;19.10;43.48;102136.78;5048051;28;20021;-67
2022/01/19 08:58:13;;;;;;;4.82;2.17;;;;;;;19.09;43.55;102130.69;5045914;28;20025;-67
2022/01/19 09:00:40;;;;;;;7.22;1.83;;;;;;;19.06;43.57;102124.88;5047568;28;20075;-69
2022/01/19 09:03:06;;;;;;;6.53;1.55;;;;;;;19.04;43.64;102130.34;5046990;28;20582;-68
2022/01/19 09:05:31;;;;;;;3.75;1.35;;;;;;;19.04;43.56;102132.16;5046867;28;20033;-69
2022/01/19 09:07:57;;;;;;;4.78;1.73;;;;;;;19.04;44.75;102116.31;5047759;28;20120;-67
2022/01/19 09:10:22;;;;;;;8.23;1.50;;;;;;;19.03;44.79;102119.94;5043067;28;20033;-69
2022/01/19 09:12:48;;;;;;;2.63;1.75;;;;;;;19.02;44.59;102128.84;5043753;28;20318;-68
2022/01/19 09:15:15;;;;;;;3.28;1.45;;;;;;;19.01;44.47;102127.19;5046333;28;20033;-68
2022/01/19 09:17:41;;;;;;;10.15;1.88;;;;;;;18.99;44.56;102123.88;5044859;28;20029;-69
2022/01/19 09:20:08;;;;;;;15.05;1.70;;;;;;;18.98;44.89;102123.03;5042233;28;20044;-69
2022/01/19 09:22:33;;;;;;;9.65;2.60;;;;;;;18.97;45.09;102128.47;5048390;28;20064;-68
2022/01/19 09:24:59;;;;;;;15.65;2.92;;;;;;;18.96;45.20;102135.59;5048368;28;20071;-68
2022/01/19 09:27:25;;;;;;;12.82;1.33;;;;;;;18.96;45.23;102132.13;5045568;28;20338;-69
2022/01/19 09:29:50;;;;;;;7.30;1.77;;;;;;;18.94;45.23;102124.34;5045927;28;20383;-68
2022/01/19 09:32:15;;;;;;;5.72;2.30;;;;;;;18.93;44.97;102127.97;5043440;28;20033;-70
2022/01/19 09:34:47;;;;;;;7.68;2.60;;;;;;;18.94;45.08;102118.25;5036869;28;20033;-68
2022/01/19 09:37:13;;;;;;;5.07;1.80;;;;;;;18.93;45.04;102124.50;5047971;28;20033;-69
2022/01/19 09:39:39;;;;;;;8.00;1.95;;;;;;;18.93;44.98;102124.50;5040996;28;20031;-70
2022/01/19 09:42:05;;;;;;;6.13;1.95;;;;;;;18.93;45.03;102125.34;5034050;28;20430;-68
2022/01/19 09:44:31;;;;;;;5.65;1.67;;;;;;;18.92;45.11;102123.69;5046000;28;20025;-68
2022/01/19 09:46:57;;;;;;;8.02;1.52;;;;;;;18.93;45.11;102125.34;5043200;28;20472;-69
2022/01/19 09:49:23;;;;;;;5.65;2.00;;;;;;;18.94;45.20;102116.44;5044248;28;20029;-70
2022/01/19 09:51:51;;;;;;;5.25;1.88;;;;;;;18.92;44.88;102112.28;5039925;28;20517;-71
2022/01/19 09:54:19;;;;;;;8.68;1.88;;;;;;;18.90;44.91;102110.63;5045988;28;20033;-70
2022/01/19 09:56:45;;;;;;;7.50;1.88;;;;;;;18.90;44.39;102108.00;5042707;28;20052;-69
2022/01/19 09:59:15;;;;;;;8.02;2.50;;;;;;;18.87;44.23;102097.78;5040001;28;20027;-70
2022/01/19 10:02:01;;;;;;;6.40;1.77;;;;;;;18.84;43.69;102095.44;5042476;28;20071;-69
2022/01/19 10:04:35;;;;;;;6.25;2.83;;;;;;;18.84;43.40;102100.72;5039235;28;20045;-69
2022/01/19 10:07:22;;;;;;;6.05;1.90;;;;;;;18.79;43.34;102087.19;5041230;28;20893;-70
2022/01/19 10:09:57;;;;;;;4.63;1.67;;;;;;;18.80;43.38;102077.44;5042431;28;20059;-68
2022/01/19 10:18:25;;;;;;;8.23;2.60;;;;;;;18.81;44.20;102066.72;5040349;28;20047;-68
2022/01/19 10:21:13;;;;;;;4.93;2.10;;;;;;;18.81;44.49;102058.81;5043357;28;20068;-69
2022/01/19 10:23:41;;;;;;;7.55;1.88;;;;;;;18.83;44.55;102056.00;5051994;28;20048;-68
2022/01/19 10:26:10;;;;;;;4.88;1.80;;;;;;;18.82;44.42;102060.44;5040948;28;20047;-70
2022/01/19 10:28:58;;;;;;;5.75;2.38;;;;;;;18.78;44.05;102045.91;5045305;28;20024;-69
2022/01/19 10:31:24;;;;;;;3.25;2.30;;;;;;;18.78;43.86;102035.34;5040173;28;20492;-69
2022/01/19 10:34:10;;;;;;;7.80;2.10;;;;;;;18.74;43.83;102026.09;5039999;28;20071;-69
2022/01/19 10:36:40;;;;;;;;;;;;;;;18.66;43.85;102028.69;5045658;28;20037;-69
2022/01/19 10:39:05;;;;;;;4.18;1.50;;;;;;;18.68;44.18;102020.63;5039340;28;19930;-70
2022/01/19 10:41:30;;;;;;;13.73;3.40;;;;;;;18.69;44.18;102023.09;5043032;28;20045;-70
2022/01/19 10:43:56;;;;;;;4.80;3.00;;;;;;;18.70;43.71;102011.56;5043742;28;20037;-69
2022/01/19 10:46:27;;;;;;;9.30;2.38;;;;;;;18.74;43.62;102009.44;5044373;28;20047;-71
2022/01/19 10:49:07;;;;;;;7.63;2.70;;;;;;;18.72;43.73;102014.03;5040787;28;20048;-68
2022/01/19 10:51:44;;;;;;;9.75;2.95;;;;;;;18.73;44.04;102013.88;5039582;28;20673;-69
2022/01/19 10:54:13;;;;;;;4.63;2.50;;;;;;;18.73;44.01;102000.69;5044253;28;20052;-68
2022/01/19 10:56:39;;;;;;;4.82;2.20;;;;;;;18.72;43.54;102004.31;5042600;28;20032;-67
2022/01/19 10:59:13;;;;;;;5.03;2.78;;;;;;;18.69;43.20;101999.34;5041658;28;20040;-71
2022/01/19 11:01:52;;;;;;;4.93;2.25;;;;;;;18.67;43.25;101998.69;5040743;28;20112;-70
2022/01/19 11:04:33;;;;;;;4.60;2.17;;;;;;;18.67;43.26;101998.69;5041764;28;20041;-70
2022/01/19 11:07:12;;;;;;;10.65;2.97;;;;;;;18.64;43.60;101987.63;5034274;28;20417;-71
2022/01/19 11:09:45;;;;;;;7.80;2.67;;;;;;;18.65;44.07;101984.81;5039165;28;20036;-70
2022/01/19 11:12:15;;;;;;;5.03;2.88;;;;;;;18.64;43.97;101972.59;5042616;28;20029;-69
2022/01/19 11:14:42;;;;;;;4.57;2.00;;;;;;;18.63;43.96;101965.66;5044936;28;20124;-70
2022/01/19 11:17:09;;;;;;;6.00;2.22;;;;;;;18.62;44.04;101961.38;5044138;28;20326;-68
2022/01/19 11:19:39;;;;;;;3.17;1.73;;;;;;;18.59;43.86;101953.75;5046535;28;20033;-68
2022/01/19 11:22:14;;;;;;;2.58;1.88;;;;;;;18.58;43.82;101952.09;5045376;28;20062;-70
2022/01/19 11:24:58;;;;;;;3.20;1.90;;;;;;;18.54;43.98;101950.75;5042882;28;20060;-70
2022/01/19 11:27:28;;;;;;;3.45;1.90;;;;;;;18.55;43.92;101942.69;5045296;28;20282;-68
2022/01/19 11:30:25;;;;;;;7.00;2.22;;;;;;;18.51;44.02;101937.88;5041546;28;20040;-69
2022/01/19 11:33:25;;;;;;;9.68;2.88;;;;;;;18.49;44.12;101930.13;5037306;28;20044;-69
2022/01/19 11:35:57;;;;;;;8.38;2.70;;;;;;;18.50;44.49;101923.03;5043788;28;20087;-69
2022/01/19 11:39:11;;;;;;;3.13;1.73;;;;;;;18.49;44.62;101909.00;5043652;28;20047;-68
2022/01/19 11:41:45;;;;;;;7.13;2.30;;;;;;;18.51;45.10;101906.22;5031912;28;20063;-71
2022/01/19 11:44:27;;;;;;;8.18;2.25;;;;;;;18.52;45.89;101900.78;5038775;28;20040;-68
2022/01/19 11:46:54;;;;;;;5.57;2.75;;;;;;;18.57;47.12;101895.00;5040752;28;20037;-68
2022/01/19 11:49:49;;;;;;;9.77;3.22;;;;;;;18.71;48.73;101891.78;5044249;28;20037;-69
2022/01/19 11:52:16;;;;;;;11.60;3.30;;;;;;;18.95;48.66;101887.47;5043901;28;20037;-68
2022/01/19 11:54:42;;;;;;;13.38;4.03;;;;;;;19.11;52.18;101884.84;5042199;28;20033;-70
2022/01/19 11:57:17;;;;;;;9.90;5.18;;;;;;;19.35;58.61;101876.09;5043620;28;20166;-67
2022/01/19 11:59:45;;;;;;;7.50;4.90;;;;;;;19.57;61.37;101871.91;5042416;28;20140;-69
2022/01/19 12:02:23;;;;;;;8.75;4.00;;;;;;;19.75;65.31;101875.19;5043099;28;20049;-68
2022/01/19 12:05:07;;;;;;;8.15;3.58;;;;;;;19.84;63.53;101872.34;5043796;28;20041;-70
2022/01/19 12:07:44;;;;;;;11.60;4.43;;;;;;;19.93;65.68;101867.81;5041286;28;20043;-68
2022/01/19 12:10:13;;;;;;;9.45;3.85;;;;;;;19.82;61.91;101863.75;5041541;28;20124;-69
2022/01/19 12:12:47;;;;;;;3.00;2.42;;;;;;;19.64;60.12;101849.09;5041999;28;20527;-70
2022/01/19 12:15:57;;;;;;;3.40;2.33;;;;;;;19.44;58.39;101838.88;5040537;28;20538;-68
2022/01/19 12:18:52;;;;;;;24.27;7.43;;;;;;;19.33;56.67;101831.31;5041919;28;20041;-71
2022/01/19 12:21:20;;;;;;;6.25;3.28;;;;;;;19.32;55.66;101828.84;5039206;28;20529;-70
2022/01/19 12:23:45;;;;;;;5.38;2.10;;;;;;;19.27;54.71;101826.72;5040792;28;20116;-70
2022/01/19 12:26:11;;;;;;;9.65;2.38;;;;;;;19.21;53.52;101820.28;5043026;28;20040;-71
2022/01/19 12:28:49;;;;;;;4.15;1.70;;;;;;;19.16;52.85;101824.41;5048278;28;20028;-70
2022/01/19 12:31:24;;;;;;;32.67;6.95;;;;;;;19.15;53.26;101822.78;5042715;28;20052;-67
2022/01/19 12:34:10;;;;;;;13.63;4.60;;;;;;;19.13;54.09;101808.91;5045088;28;20033;-69
2022/01/19 12:36:43;;;;;;;15.73;4.75;;;;;;;19.13;53.67;101803.63;5043391;28;20047;-70
2022/01/19 12:39:28;;;;;;;15.80;5.13;;;;;;;19.10;53.72;101796.03;5040387;28;20030;-70
2022/01/19 12:41:59;;;;;;;6.28;3.33;;;;;;;19.06;52.95;101789.44;5045702;28;20530;-70
2022/01/19 12:44:48;;;;;;;13.93;3.65;;;;;;;18.99;52.25;101786.63;5041392;28;20363;-68
2022/01/19 12:47:29;;;;;;;3.90;2.33;;;;;;;18.94;51.67;101780.19;5037450;28;20528;-68
2022/01/19 12:49:58;;;;;;;6.47;2.97;;;;;;;18.92;51.35;101768.97;5044287;28;20484;-71
2022/01/19 12:52:27;;;;;;;8.90;4.43;;;;;;;18.93;51.44;101760.06;5041688;28;20025;-69